createdAt,value
2022-08-19T00:01:38.204Z,2.83
2022-08-19T00:04:09.172Z,2.78
2022-08-19T00:06:38.416Z,3.10
2022-08-19T00:09:07.957Z,2.88
2022-08-19T00:11:36.942Z,3.08
2022-08-19T00:14:05.326Z,2.90
2022-08-19T00:16:32.393Z,2.63
2022-08-19T00:18:59.878Z,2.95
2022-08-19T00:21:31.173Z,2.88
2022-08-19T00:23:59.239Z,2.53
2022-08-19T00:26:27.435Z,3.22
2022-08-19T00:28:54.767Z,3.03
2022-08-19T00:31:22.030Z,3.35
2022-08-19T00:33:51.471Z,2.70
2022-08-19T00:38:46.268Z,2.80
2022-08-19T00:41:22.231Z,3.22
2022-08-19T00:44:09.439Z,3.42
2022-08-19T00:46:39.112Z,2.95
2022-08-19T00:49:28.911Z,3.22
2022-08-19T00:52:05.284Z,3.05
2022-08-19T00:54:32.660Z,3.25
2022-08-19T00:57:01.025Z,3.05
2022-08-19T01:00:00.657Z,3.60
2022-08-19T01:02:17.764Z,3.17
2022-08-19T01:04:44.729Z,3.17
2022-08-19T01:07:15.150Z,3.40
2022-08-19T01:09:44.685Z,3.80
2022-08-19T01:12:11.690Z,3.25
2022-08-19T01:14:41.199Z,3.30
2022-08-19T01:19:44.238Z,2.90
2022-08-19T01:22:35.908Z,3.40
2022-08-19T01:25:03.568Z,3.55
2022-08-19T01:27:43.098Z,3.33
2022-08-19T01:30:14.610Z,3.03
2022-08-19T01:32:41.827Z,3.50
2022-08-19T01:35:10.802Z,3.25
2022-08-19T01:37:46.635Z,3.47
2022-08-19T01:40:14.026Z,2.58
2022-08-19T01:42:41.468Z,3.13
2022-08-19T01:45:09.124Z,3.15
2022-08-19T01:47:37.815Z,3.25
2022-08-19T01:50:07.968Z,3.37
2022-08-19T01:52:40.482Z,3.60
2022-08-19T01:55:10.413Z,3.45
2022-08-19T01:57:38.916Z,3.10
2022-08-19T02:00:11.494Z,3.38
2022-08-19T02:02:39.003Z,3.47
2022-08-19T02:05:08.049Z,3.70
2022-08-19T02:07:41.244Z,3.53
2022-08-19T02:10:13.411Z,4.03
2022-08-19T02:15:46.816Z,3.58
2022-08-19T02:18:14.626Z,3.90
2022-08-19T02:20:43.730Z,3.30
2022-08-19T02:23:13.915Z,3.88
2022-08-19T02:25:45.356Z,3.60
2022-08-19T02:28:15.568Z,3.03
2022-08-19T02:30:45.868Z,2.75
2022-08-19T02:33:12.734Z,2.08
2022-08-19T02:35:43.652Z,1.83
2022-08-19T02:38:29.030Z,1.33
2022-08-19T02:40:59.824Z,1.77
2022-08-19T02:43:28.833Z,1.70
2022-08-19T02:45:56.548Z,1.50
2022-08-19T02:48:25.351Z,1.25
2022-08-19T02:50:55.973Z,1.50
2022-08-19T02:53:28.427Z,1.90
2022-08-19T02:55:55.813Z,1.77
2022-08-19T02:58:25.126Z,2.42
2022-08-19T03:03:21.481Z,1.88
2022-08-19T03:05:56.482Z,1.65
2022-08-19T03:08:25.254Z,1.90
2022-08-19T03:10:53.851Z,1.90
2022-08-19T03:13:20.913Z,1.52
2022-08-19T03:15:49.082Z,2.08
2022-08-19T03:18:18.011Z,2.28
2022-08-19T03:20:47.197Z,1.98
2022-08-19T03:23:14.850Z,2.00
2022-08-19T03:25:44.207Z,2.00
2022-08-19T03:28:13.403Z,2.00
2022-08-19T03:30:43.654Z,1.92
2022-08-19T03:33:18.003Z,2.50
2022-08-19T03:35:46.138Z,2.28
2022-08-19T03:38:12.982Z,1.80
2022-08-19T03:40:39.920Z,2.53
2022-08-19T03:43:07.050Z,2.38
2022-08-19T03:45:33.981Z,2.85
2022-08-19T03:48:01.479Z,2.60
2022-08-19T03:50:28.418Z,2.50
2022-08-19T03:52:55.262Z,2.80
2022-08-19T03:55:22.212Z,2.35
2022-08-19T03:57:49.965Z,2.40
2022-08-19T04:00:17.520Z,2.28
2022-08-19T04:02:58.559Z,2.70
2022-08-19T04:05:29.653Z,2.53
2022-08-19T04:07:59.763Z,2.80
2022-08-19T04:10:26.816Z,2.42
2022-08-19T04:12:53.859Z,2.55
2022-08-19T04:15:21.764Z,2.10
2022-08-19T04:17:48.631Z,3.00
2022-08-19T04:20:15.576Z,2.38
2022-08-19T04:22:42.660Z,2.67
2022-08-19T04:25:10.096Z,1.90
2022-08-19T04:27:41.214Z,2.08
2022-08-19T04:30:08.610Z,2.53
2022-08-19T04:32:36.377Z,2.80
2022-08-19T04:35:17.670Z,2.50
2022-08-19T04:37:45.603Z,2.80
2022-08-19T04:40:31.115Z,2.47
2022-08-19T04:42:58.050Z,2.33
2022-08-19T04:45:25.083Z,2.50
2022-08-19T04:47:58.170Z,2.50
2022-08-19T04:50:27.365Z,2.45
2022-08-19T04:52:56.363Z,2.17
2022-08-19T04:55:26.379Z,2.83
2022-08-19T04:57:53.810Z,2.53
2022-08-19T05:00:20.814Z,2.60
2022-08-19T05:02:47.928Z,2.45
2022-08-19T05:05:15.035Z,2.58
2022-08-19T05:07:42.066Z,2.13
2022-08-19T05:10:09.406Z,2.15
2022-08-19T05:12:36.571Z,2.20
2022-08-19T05:15:06.772Z,2.50
2022-08-19T05:17:38.294Z,2.20
2022-08-19T05:20:29.160Z,2.10
2022-08-19T05:22:56.334Z,2.13
2022-08-19T05:25:25.554Z,2.30
2022-08-19T05:27:52.502Z,2.15
2022-08-19T05:30:30.212Z,2.05
2022-08-19T05:33:07.018Z,2.35
2022-08-19T05:35:34.686Z,2.20
2022-08-19T05:38:01.961Z,2.25
2022-08-19T05:40:29.519Z,2.70
2022-08-19T05:42:56.943Z,2.00
2022-08-19T05:45:23.843Z,2.25
2022-08-19T05:47:50.780Z,1.98
2022-08-19T05:50:18.586Z,2.10
2022-08-19T05:52:50.099Z,2.13
2022-08-19T05:55:17.868Z,2.20
2022-08-19T05:57:44.715Z,2.50
2022-08-19T06:00:12.576Z,2.20
2022-08-19T06:02:40.243Z,2.15
2022-08-19T06:05:10.097Z,2.35
2022-08-19T06:07:38.105Z,2.83
2022-08-19T06:10:06.935Z,2.50
2022-08-19T06:12:35.546Z,2.03
2022-08-19T06:15:12.539Z,2.37
2022-08-19T06:17:39.578Z,2.30
2022-08-19T06:20:09.743Z,2.75
2022-08-19T06:22:46.324Z,2.50
2022-08-19T06:25:15.165Z,2.20
2022-08-19T06:28:11.369Z,2.60
2022-08-19T06:30:29.387Z,2.03
2022-08-19T06:32:56.224Z,1.80
2022-08-19T06:35:23.755Z,2.38
2022-08-19T06:37:50.677Z,2.05
2022-08-19T06:40:17.913Z,2.47
2022-08-19T06:42:52.320Z,2.15
2022-08-19T06:45:34.984Z,1.90
2022-08-19T06:48:06.415Z,1.98
2022-08-19T06:50:33.336Z,1.80
2022-08-19T06:53:04.542Z,2.15
2022-08-19T06:55:33.490Z,2.35
2022-08-19T06:58:04.797Z,2.05
2022-08-19T07:03:07.793Z,2.15
2022-08-19T07:05:45.452Z,1.90
2022-08-19T07:08:13.566Z,2.40
2022-08-19T07:10:44.781Z,1.95
2022-08-19T07:13:12.486Z,2.25
2022-08-19T07:15:39.761Z,2.70
2022-08-19T07:18:07.030Z,2.40
2022-08-19T07:20:40.289Z,1.92
2022-08-19T07:23:09.369Z,2.08
2022-08-19T07:25:44.272Z,2.05
2022-08-19T07:28:14.355Z,1.90
2022-08-19T07:30:52.792Z,1.95
2022-08-19T07:33:20.244Z,2.00
2022-08-19T07:35:47.212Z,2.38
2022-08-19T07:38:15.828Z,2.20
2022-08-19T07:40:44.406Z,1.87
2022-08-19T07:43:14.221Z,2.85
2022-08-19T07:45:45.028Z,2.03
2022-08-19T07:48:12.076Z,2.20
2022-08-19T07:50:39.496Z,2.53
2022-08-19T07:53:06.426Z,2.00
2022-08-19T07:55:41.202Z,2.20
2022-08-19T07:58:15.785Z,2.10
2022-08-19T08:00:44.615Z,2.20
2022-08-19T08:03:12.494Z,2.20
2022-08-19T08:05:57.828Z,1.70
2022-08-19T08:08:36.561Z,1.52
2022-08-19T08:11:04.173Z,1.53
2022-08-19T08:13:36.274Z,1.35
2022-08-19T08:16:10.237Z,1.52
2022-08-19T08:18:43.229Z,1.92
2022-08-19T08:21:10.571Z,1.40
2022-08-19T08:23:37.517Z,1.35
2022-08-19T08:26:06.743Z,1.77
2022-08-19T08:28:33.688Z,1.58
2022-08-19T08:31:00.819Z,1.67
2022-08-19T08:33:33.492Z,1.63
2022-08-19T08:36:09.447Z,1.70
2022-08-19T08:38:41.198Z,1.50
2022-08-19T08:41:23.959Z,1.50
2022-08-19T08:43:53.806Z,1.88
2022-08-19T08:46:39.124Z,1.75
2022-08-19T08:49:21.345Z,1.52
2022-08-19T08:52:04.215Z,1.58
2022-08-19T08:54:41.264Z,1.50
2022-08-19T08:57:45.012Z,1.52
2022-08-19T09:00:18.204Z,1.50
2022-08-19T09:02:50.804Z,1.75
2022-08-19T09:05:22.215Z,1.55
2022-08-19T09:08:06.228Z,1.70
2022-08-19T09:10:45.159Z,1.35
2022-08-19T09:13:21.014Z,1.60
2022-08-19T09:16:21.885Z,1.30
2022-08-19T09:19:06.449Z,1.60
2022-08-19T09:21:35.535Z,1.90
2022-08-19T09:24:05.444Z,1.60
2022-08-19T09:26:35.281Z,2.08
2022-08-19T09:29:15.824Z,2.03
2022-08-19T09:31:44.674Z,1.70
2022-08-19T09:34:11.581Z,1.90
2022-08-19T09:36:53.371Z,1.92
2022-08-19T09:39:20.363Z,1.50
2022-08-19T09:41:49.086Z,1.65
2022-08-19T09:44:16.942Z,1.40
2022-08-19T09:46:45.143Z,1.70
2022-08-19T09:49:12.048Z,1.65
2022-08-19T09:51:40.384Z,1.50
2022-08-19T09:54:08.004Z,1.75
2022-08-19T09:56:38.499Z,1.80
2022-08-19T09:59:05.611Z,1.92
2022-08-19T10:01:33.729Z,2.17
2022-08-19T10:04:05.351Z,1.90
2022-08-19T10:06:46.368Z,1.70
2022-08-19T10:09:15.169Z,1.90
2022-08-19T10:11:52.226Z,1.80
2022-08-19T10:16:52.836Z,2.10
2022-08-19T10:19:25.883Z,2.05
2022-08-19T10:21:55.649Z,1.48
2022-08-19T10:24:28.984Z,1.80
2022-08-19T10:26:58.884Z,1.50
2022-08-19T10:29:32.535Z,1.90
2022-08-19T10:32:09.802Z,2.03
2022-08-19T10:34:48.364Z,1.80
2022-08-19T10:37:23.743Z,1.60
2022-08-19T10:39:56.545Z,1.67
2022-08-19T10:42:23.714Z,1.80
2022-08-19T10:44:51.924Z,1.70
2022-08-19T10:47:25.439Z,1.77
2022-08-19T10:50:19.721Z,1.67
2022-08-19T10:52:51.279Z,1.50
2022-08-19T10:55:39.852Z,2.10
2022-08-19T10:58:15.333Z,1.90
2022-08-19T11:00:44.258Z,1.55
2022-08-19T11:03:11.430Z,2.75
2022-08-19T11:05:42.106Z,2.20
2022-08-19T11:08:23.000Z,6.15
2022-08-19T11:10:58.614Z,3.10
2022-08-19T11:13:26.138Z,2.72
2022-08-19T11:16:07.169Z,1.90
2022-08-19T11:18:40.326Z,2.33
2022-08-19T11:21:18.153Z,2.42
2022-08-19T11:23:46.331Z,2.10
2022-08-19T11:26:13.630Z,1.85
2022-08-19T11:28:41.646Z,2.20
2022-08-19T11:31:20.612Z,2.65
2022-08-19T11:33:48.120Z,3.00
2022-08-19T11:36:16.288Z,2.55
2022-08-19T11:38:43.541Z,2.83
2022-08-19T11:41:10.599Z,2.38
2022-08-19T11:43:38.134Z,2.10
2022-08-19T11:46:08.184Z,2.20
2022-08-19T11:48:36.608Z,2.22
2022-08-19T11:51:37.809Z,2.03
2022-08-19T11:54:05.228Z,2.38
2022-08-19T11:56:32.807Z,1.98
2022-08-19T11:59:01.200Z,2.13
2022-08-19T12:01:28.376Z,1.98
2022-08-19T12:03:57.257Z,2.15
2022-08-19T12:06:32.760Z,1.80
2022-08-19T12:09:02.832Z,2.40
2022-08-19T12:11:31.283Z,2.10
2022-08-19T12:14:02.224Z,2.42
2022-08-19T12:16:31.558Z,2.28
2022-08-19T12:19:04.779Z,2.28
2022-08-19T12:21:33.243Z,1.88
2022-08-19T12:24:02.237Z,2.17
2022-08-19T12:26:32.471Z,2.40
2022-08-19T12:29:00.497Z,2.22
2022-08-19T12:31:29.301Z,2.60
2022-08-19T12:33:56.801Z,2.65
2022-08-19T12:36:24.416Z,2.63
2022-08-19T12:38:52.620Z,3.10
2022-08-19T12:41:22.233Z,2.30
2022-08-19T12:43:50.822Z,2.65
2022-08-19T12:48:46.719Z,2.92
2022-08-19T12:51:19.763Z,2.13
2022-08-19T12:53:52.519Z,1.60
2022-08-19T12:56:23.212Z,1.85
2022-08-19T12:58:52.846Z,2.05
2022-08-19T13:01:22.005Z,1.58
2022-08-19T13:03:51.163Z,1.58
2022-08-19T13:06:19.467Z,1.80
2022-08-19T13:08:47.763Z,2.80
2022-08-19T13:11:18.391Z,1.90
2022-08-19T13:13:55.003Z,2.50
2022-08-19T13:19:06.209Z,2.53
2022-08-19T13:21:33.434Z,2.28
2022-08-19T13:24:00.487Z,2.13
2022-08-19T13:26:28.490Z,2.35
2022-08-19T13:29:16.081Z,2.30
2022-08-19T13:32:02.300Z,2.50
2022-08-19T13:34:36.552Z,2.60
2022-08-19T13:37:05.076Z,2.22
2022-08-19T13:39:34.259Z,3.15
2022-08-19T13:42:02.700Z,2.92
2022-08-19T13:44:32.846Z,2.58
2022-08-19T13:47:09.212Z,2.47
2022-08-19T13:49:37.438Z,2.75
2022-08-19T13:52:06.657Z,3.05
2022-08-19T13:54:33.938Z,2.55
2022-08-19T13:57:00.873Z,2.58
2022-08-19T13:59:28.048Z,2.40
2022-08-19T14:01:59.460Z,2.42
2022-08-19T14:04:26.493Z,2.22
2022-08-19T14:06:53.350Z,2.20
2022-08-19T14:09:20.285Z,1.88
2022-08-19T14:11:47.614Z,2.00
2022-08-19T14:14:16.537Z,1.80
2022-08-19T14:16:43.760Z,1.92
2022-08-19T14:19:10.744Z,1.70
2022-08-19T14:21:41.525Z,1.83
2022-08-19T14:24:09.413Z,1.70
2022-08-19T14:26:36.523Z,1.60
2022-08-19T14:29:03.592Z,2.20
2022-08-19T14:31:31.049Z,1.70
2022-08-19T14:33:58.199Z,1.77
2022-08-19T14:36:25.083Z,1.67
2022-08-19T14:38:52.241Z,1.73
2022-08-19T14:41:22.719Z,1.67
2022-08-19T14:43:52.233Z,2.05
2022-08-19T14:46:22.044Z,1.85
2022-08-19T14:48:51.679Z,1.80
2022-08-19T14:51:21.932Z,1.85
2022-08-19T14:56:23.581Z,1.80
2022-08-19T14:58:52.636Z,1.67
2022-08-19T15:01:21.890Z,1.60
2022-08-19T15:03:50.167Z,1.40
2022-08-19T15:06:17.173Z,1.70
2022-08-19T15:08:45.779Z,1.35
2022-08-19T15:11:16.871Z,1.80
2022-08-19T15:13:45.595Z,1.48
2022-08-19T15:16:18.203Z,1.60
2022-08-19T15:18:46.676Z,1.50
2022-08-19T15:21:17.599Z,1.33
2022-08-19T15:23:55.899Z,1.40
2022-08-19T15:26:23.057Z,1.90
2022-08-19T15:28:50.150Z,1.55
2022-08-19T15:31:28.151Z,1.35
2022-08-19T15:33:58.160Z,1.63
2022-08-19T15:36:26.254Z,1.33
2022-08-19T15:38:53.356Z,1.65
2022-08-19T15:41:30.819Z,1.63
2022-08-19T15:44:04.395Z,1.90
2022-08-19T15:46:34.089Z,1.58
2022-08-19T15:49:01.721Z,1.70
2022-08-19T15:51:30.993Z,1.80
2022-08-19T15:56:27.593Z,1.70
2022-08-19T15:59:13.322Z,1.90
2022-08-19T16:01:58.856Z,1.40
2022-08-19T16:04:50.318Z,2.05
2022-08-19T16:07:17.251Z,1.70
2022-08-19T16:09:52.547Z,1.70
2022-08-19T16:12:42.059Z,1.73
2022-08-19T16:16:00.080Z,1.48
2022-08-19T16:18:27.062Z,1.83
2022-08-19T16:20:53.978Z,1.98
2022-08-19T16:23:20.951Z,1.80
2022-08-19T16:25:47.828Z,1.63
2022-08-19T16:28:15.478Z,1.92
2022-08-19T16:30:43.017Z,1.60
2022-08-19T16:33:23.158Z,2.45
2022-08-19T16:35:52.037Z,2.92
2022-08-19T16:38:28.156Z,2.00
2022-08-19T16:40:55.016Z,1.95
2022-08-19T16:43:22.825Z,2.00
2022-08-19T16:45:53.072Z,1.73
2022-08-19T16:48:21.752Z,2.42
2022-08-19T16:50:49.894Z,3.17
2022-08-19T16:53:20.303Z,2.10
2022-08-19T16:55:53.301Z,1.70
2022-08-19T16:58:28.422Z,1.90
2022-08-19T17:01:00.757Z,1.63
2022-08-19T17:03:35.951Z,2.10
2022-08-19T17:06:18.428Z,2.17
2022-08-19T17:08:49.900Z,1.80
2022-08-19T17:11:19.130Z,2.30
2022-08-19T17:13:47.779Z,2.63
2022-08-19T17:16:17.239Z,2.65
2022-08-19T17:18:44.932Z,2.30
2022-08-19T17:21:13.222Z,2.65
2022-08-19T17:23:43.524Z,3.10
2022-08-19T17:26:18.463Z,3.58
2022-08-19T17:28:49.857Z,3.60
2022-08-19T17:31:18.830Z,3.83
2022-08-19T17:33:48.192Z,2.80
2022-08-19T17:36:23.662Z,2.42
2022-08-19T17:38:52.801Z,2.38
2022-08-19T17:41:19.730Z,2.25
2022-08-19T17:43:46.751Z,2.38
2022-08-19T17:46:20.365Z,2.10
2022-08-19T17:48:52.856Z,1.90
2022-08-19T17:51:34.058Z,2.10
2022-08-19T17:54:04.305Z,2.40
2022-08-19T17:59:00.524Z,2.20
2022-08-19T18:01:37.782Z,2.33
2022-08-19T18:04:18.681Z,2.22
2022-08-19T18:06:52.962Z,2.35
2022-08-19T18:09:41.878Z,2.72
2022-08-19T18:12:15.614Z,2.38
2022-08-19T18:14:42.785Z,2.35
2022-08-19T18:17:15.114Z,2.60
2022-08-19T18:19:46.706Z,2.80
2022-08-19T18:22:29.512Z,3.22
2022-08-19T18:24:57.807Z,3.05
2022-08-19T18:27:26.136Z,3.35
2022-08-19T18:29:56.612Z,2.80
2022-08-19T18:32:28.089Z,2.42
2022-08-19T18:34:56.138Z,2.25
2022-08-19T18:37:25.813Z,2.47
2022-08-19T18:40:11.356Z,3.08
2022-08-19T18:43:04.457Z,2.60
2022-08-19T18:45:50.489Z,2.50
2022-08-19T18:48:35.982Z,2.90
2022-08-19T18:51:03.110Z,2.90
2022-08-19T18:53:32.859Z,2.80
2022-08-19T18:56:00.290Z,2.90
2022-08-19T18:58:35.159Z,2.88
2022-08-19T19:01:11.278Z,2.97
2022-08-19T19:03:45.326Z,3.22
2022-08-19T19:06:19.024Z,3.20
2022-08-19T19:08:46.807Z,2.83
2022-08-19T19:11:17.643Z,3.30
2022-08-19T19:13:46.938Z,2.72
2022-08-19T19:16:13.793Z,3.30
2022-08-19T19:18:42.459Z,3.00
2022-08-19T19:21:10.747Z,3.40
2022-08-19T19:23:40.806Z,3.00
2022-08-19T19:26:10.491Z,3.17
2022-08-19T19:28:43.972Z,3.25
2022-08-19T19:31:16.853Z,2.90
2022-08-19T19:33:44.914Z,3.00
2022-08-19T19:36:12.719Z,2.80
2022-08-19T19:38:39.793Z,2.80
2022-08-19T19:41:06.700Z,3.40
2022-08-19T19:43:35.941Z,2.78
2022-08-19T19:46:08.109Z,3.00
2022-08-19T19:48:35.636Z,3.45
2022-08-19T19:51:04.452Z,3.20
2022-08-19T19:53:31.304Z,2.93
2022-08-19T19:55:58.876Z,2.67
2022-08-19T19:58:30.860Z,2.95
2022-08-19T20:01:02.488Z,2.80
2022-08-19T20:03:36.595Z,3.08
2022-08-19T20:06:03.481Z,3.28
2022-08-19T20:08:48.757Z,3.53
2022-08-19T20:11:46.260Z,3.38
2022-08-19T20:14:23.097Z,3.20
2022-08-19T20:16:51.696Z,2.90
2022-08-19T20:19:21.622Z,3.03
2022-08-19T20:21:51.417Z,2.85
2022-08-19T20:24:26.234Z,2.95
2022-08-19T20:26:53.977Z,2.72
2022-08-19T20:29:38.184Z,2.72
2022-08-19T20:32:05.868Z,3.25
2022-08-19T20:34:33.772Z,2.90
2022-08-19T20:37:02.063Z,3.22
2022-08-19T20:39:29.214Z,3.28
2022-08-19T20:41:56.537Z,3.28
2022-08-19T20:44:25.414Z,3.65
2022-08-19T20:46:54.278Z,4.00
2022-08-19T20:49:23.027Z,3.58
2022-08-19T20:51:54.972Z,5.00
2022-08-19T20:54:22.120Z,4.25
2022-08-19T20:56:49.066Z,4.53
2022-08-19T20:59:15.989Z,4.22
2022-08-19T21:01:42.943Z,4.40
2022-08-19T21:04:09.795Z,4.72
2022-08-19T21:06:38.613Z,4.30
2022-08-19T21:09:09.271Z,4.28
2022-08-19T21:11:36.720Z,3.88
2022-08-19T21:14:03.755Z,3.78
2022-08-19T21:16:32.645Z,4.00
2022-08-19T21:19:00.506Z,4.13
2022-08-19T21:21:27.741Z,4.43
2022-08-19T21:23:54.807Z,3.60
2022-08-19T21:26:21.816Z,4.53
2022-08-19T21:28:48.808Z,4.50
2022-08-19T21:31:17.779Z,3.80
2022-08-19T21:33:45.206Z,4.18
2022-08-19T21:36:12.291Z,4.13
2022-08-19T21:38:39.238Z,3.88
2022-08-19T21:41:06.871Z,4.07
2022-08-19T21:43:36.049Z,4.22
2022-08-19T21:46:03.405Z,3.60
2022-08-19T21:48:30.670Z,3.78
2022-08-19T21:50:57.598Z,3.60
2022-08-19T21:53:24.572Z,3.40
2022-08-19T21:55:53.643Z,3.50
2022-08-19T21:58:28.794Z,3.25
2022-08-19T22:00:58.797Z,3.88
2022-08-19T22:03:26.690Z,2.72
2022-08-19T22:05:53.721Z,2.60
2022-08-19T22:08:20.602Z,2.63
2022-08-19T22:10:49.693Z,2.80
2022-08-19T22:13:18.207Z,2.47
2022-08-19T22:15:45.976Z,2.70
2022-08-19T22:18:13.801Z,2.92
2022-08-19T22:20:41.094Z,2.53
2022-08-19T22:23:08.169Z,3.40
2022-08-19T22:25:39.607Z,2.67
2022-08-19T22:28:11.050Z,2.90
2022-08-19T22:30:41.811Z,3.10
2022-08-19T22:33:12.483Z,3.17
2022-08-19T22:35:40.764Z,3.13
2022-08-19T22:38:08.989Z,3.00
2022-08-19T22:40:39.676Z,3.10
2022-08-19T22:43:15.073Z,3.38
2022-08-19T22:45:43.457Z,2.92
2022-08-19T22:48:12.879Z,3.35
2022-08-19T22:53:09.048Z,2.63
2022-08-19T22:55:38.157Z,2.95
2022-08-19T22:58:05.620Z,2.88
2022-08-19T23:00:33.330Z,3.20
2022-08-19T23:03:01.589Z,2.88
2022-08-19T23:05:29.643Z,3.22
2022-08-19T23:07:58.062Z,3.33
2022-08-19T23:10:28.901Z,3.17
2022-08-19T23:12:59.837Z,3.20
2022-08-19T23:15:29.882Z,3.40
2022-08-19T23:17:59.854Z,3.17
2022-08-19T23:20:29.644Z,2.90
2022-08-19T23:22:57.553Z,2.92
2022-08-19T23:25:27.709Z,3.50
2022-08-19T23:28:13.969Z,3.53
2022-08-19T23:30:43.741Z,3.20
2022-08-19T23:33:24.520Z,2.85
2022-08-19T23:36:00.302Z,2.88
2022-08-19T23:38:29.546Z,3.22
2022-08-19T23:40:58.559Z,3.33
2022-08-19T23:43:29.294Z,3.25
2022-08-19T23:46:02.482Z,2.97
2022-08-19T23:48:38.279Z,3.67
2022-08-19T23:51:08.469Z,3.60
2022-08-19T23:53:40.519Z,3.20
2022-08-19T23:56:08.651Z,3.78
2022-08-19T23:58:37.111Z,3.30
